West Willington, Connecticut
Current Conditions -  °F | °C
As of 7:52 PM on Saturday 20 Dec 2014 (Local Time) from KIJD Reporting Station
Overcast Overcast  
Wind Chill: 26°   Ceiling: 4100
Heat Index: 33°   Visibility: 10mi
Dew Point: 25°   Wind: 8mph
Humidity: 72%   Direction: 20°NNE
Pressure: 30.28"   Gusts: NA
Location:  41.8841°N, 72.2663°W
Report Text: KIJD 210052Z AUTO 02007KT 10SM OVC041 01/M04 A3028 RMK AO2 SLP256 T00061039
Loading
Personal Weather Stations






























Interactive Weather Map New forecast layout! Learn more

10-Day Weather Forecast

Advertisements
Track Severe Weather on mobile